Data for 08/08/2006

Time Sea-Level Adjusted Pressure Absolute Pressure Temperature Relative Humidity Dew Point   
(mb) (inHg) (mb) (inHg) (C) (F) (%) (C) (F)
00:05 1019 30.09 848 25.04 23.8 74.8 26 3.2 37.8
00:10 1019 30.09 848 25.04 24.1 75.3 25 3.1 37.5
00:15 1019 30.09 848 25.04 24.1 75.3 25 2.9 37.3
00:20 1019 30.09 848 25.04 24.2 75.5 25 2.9 37.2
00:25 1019 30.09 848 25.04 24.2 75.5 25 3.2 37.7
00:30 1019 30.09 848 25.04 24.1 75.3 25 3 37.4
00:35 1019 30.09 849 25.07 24 75.2 25 3 37.4
00:40 1020 30.12 849 25.07 23.9 75 26 3.7 38.6
00:45 1020 30.12 849 25.07 23.4 74 29 4.5 40.1
00:50 1020 30.12 849 25.07 22.9 73.2 27 2.9 37.2
00:55 1020 30.12 849 25.07 23.3 74 28 3.9 39
01:00 1020 30.12 849 25.07 23 73.4 29 4.3 39.7
01:05 1020 30.12 849 25.07 22.6 72.6 30 4.5 40.2
01:10 1020 30.12 849 25.07 22.2 71.9 31 4.6 40.2
01:15 1020 30.12 849 25.07 21.8 71.3 33 4.8 40.7
01:20 1020 30.12 849 25.07 21.5 70.8 33 4.8 40.7
01:25 1020 30.12 849 25.07 21.2 70.2 35 5.2 41.3
01:30 1020 30.12 849 25.07 21 69.7 36 5.6 42.1
01:35 1020 30.12 849 25.07 20.7 69.2 37 5.7 42.3
01:40 1020 30.12 849 25.07 20.6 69 38 5.9 42.6
01:45 1020 30.12 849 25.07 20.3 68.6 39 6 42.8
01:50 1020 30.12 849 25.07 20.2 68.3 41 6.7 44
01:55 1020 30.12 849 25.07 19.9 67.9 42 6.8 44.2
02:00 1020 30.12 849 25.07 19.8 67.6 41 6.4 43.5
02:05 1020 30.12 849 25.07 19.5 67.1 42 6.3 43.4
02:10 1020 30.12 849 25.07 19.4 66.9 42 6.1 43
02:15 1020 30.12 849 25.07 19.4 67 42 6.4 43.6
02:20 1020 30.12 849 25.07 19.2 66.6 43 6.5 43.8
02:25 1020 30.12 849 25.07 18.7 65.6 45 6.7 44.1
02:30 1020 30.12 849 25.07 18.4 65 46 6.7 44.1
02:35 1020 30.12 849 25.07 18.8 65.8 43 6.2 43.1
02:40 1020 30.12 849 25.07 19.2 66.6 41 5.9 42.7
02:45 1020 30.12 849 25.07 19.7 67.5 41 6.3 43.4
02:50 1020 30.12 849 25.07 19.2 66.5 43 6.3 43.4
02:55 1020 30.12 849 25.07 18.6 65.4 43 5.9 42.6
03:00 1019 30.09 849 25.07 18.4 65.1 41 5.1 41.1
03:05 1019 30.09 849 25.07 18.6 65.5 40 4.9 40.9
03:10 1019 30.09 849 25.07 18.7 65.6 39 4.6 40.3
03:15 1019 30.09 849 25.07 19 66.2 38 4.7 40.4
03:20 1020 30.12 849 25.07 19.1 66.4 38 4.5 40
03:25 1020 30.12 849 25.07 19.4 67 37 4.6 40.2
03:30 1020 30.12 849 25.07 19 66.2 40 5.3 41.6
03:35 1020 30.12 849 25.07 18.5 65.3 40 4.9 40.8
03:40 1020 30.12 849 25.07 18.6 65.4 40 4.9 40.8
03:45 1020 30.12 849 25.07 18.5 65.3 41 5 41
03:50 1020 30.12 849 25.07 18.5 65.3 40 4.7 40.5
03:55 1020 30.12 849 25.07 18.7 65.6 40 5 41.1
04:00 1020 30.12 849 25.07 18.8 65.9 39 4.9 40.8
04:05 1020 30.12 849 25.07 18.1 64.6 49 7.3 45.2
04:10 1020 30.12 849 25.07 16.7 62 55 7.7 45.8
04:15 1020 30.12 849 25.07 16.6 61.8 55 7.5 45.4
04:20 1020 30.12 849 25.07 16.3 61.3 53 6.8 44.3
04:25 1020 30.12 849 25.07 15.8 60.5 55 7 44.6
04:30 1020 30.12 849 25.07 16 60.7 52 6.1 43
04:35 1020 30.12 849 25.07 15.9 60.7 52 6.1 42.9
04:40 1020 30.12 849 25.07 15.8 60.4 56 7.1 44.7
04:45 1020 30.12 849 25.07 15.9 60.7 52 6.1 42.9
04:50 1020 30.12 849 25.07 16 60.9 51 6 42.8
04:55 1020 30.12 849 25.07 16 60.8 56 7.3 45.2
05:00 1020 30.12 849 25.07 15.9 60.6 51 5.8 42.4
05:05 1020 30.12 849 25.07 15.9 60.6 50 5.5 41.9
05:10 1020 30.12 849 25.07 16.1 60.9 52 6.3 43.4
05:15 1020 30.12 849 25.07 15.7 60.2 52 5.9 42.7
05:20 1020 30.12 849 25.07 15.5 59.9 53 6.2 43.1
05:25 1020 30.12 849 25.07 15.1 59.1 57 6.6 43.9
05:30 1020 30.12 849 25.07 14.7 58.4 54 5.4 41.8
05:35 1020 30.12 849 25.07 14.5 58 60 6.8 44.3
05:40 1020 30.12 849 25.07 14.4 57.8 56 5.7 42.3
05:45 1020 30.12 849 25.07 14 57.2 57 5.6 42.1
05:50 1020 30.12 849 25.07 13.8 56.8 59 5.9 42.6
05:55 1020 30.12 849 25.07 13.4 56.1 57 5.1 41.1
06:00 1020 30.12 849 25.07 14.4 57.9 52 4.8 40.6
06:05 1020 30.12 849 25.07 14.6 58.2 54 5.4 41.7
06:10 1020 30.12 849 25.07 14.7 58.5 51 4.7 40.5
06:15 1020 30.12 849 25.07 14.8 58.7 50 4.5 40.1
06:20 1020 30.12 849 25.07 14.8 58.6 59 7 44.6
06:25 1020 30.12 849 25.07 14.7 58.5 51 4.9 40.8
06:30 1020 30.12 849 25.07 14.7 58.5 50 4.4 39.9
06:35 1020 30.12 849 25.07 14.6 58.2 50 4.4 39.9
06:40 1020 30.12 849 25.07 14.6 58.2 49 4.1 39.3
06:45 1020 30.12 849 25.07 15.1 59.1 47 3.9 38.9
06:50 1020 30.12 849 25.07 15.5 59.9 49 4.9 40.8
06:55 1020 30.12 849 25.07 15.4 59.6 47 4.3 39.8
07:00 1020 30.12 849 25.07 15.5 59.9 45 3.6 38.5
07:05 1020 30.12 849 25.07 15.7 60.3 54 6.4 43.5
07:10 1020 30.12 849 25.07 15.5 59.8 48 4.5 40.2
07:15 1020 30.12 849 25.07 15.4 59.7 47 4.3 39.8
07:20 1020 30.12 849 25.07 14.9 58.9 49 4.5 40.1
07:25 1020 30.12 849 25.07 15 59.1 48 4.3 39.7
07:30 1020 30.12 849 25.07 14.9 58.8 50 4.6 40.2
07:35 1020 30.12 849 25.07 15.1 59.1 54 6 42.7
07:40 1020 30.12 849 25.07 15.4 59.7 51 5.4 41.6
07:45 1020 30.12 850 25.1 15.5 60 49 5.1 41.1
07:50 1020 30.12 850 25.1 16 60.8 46 4.6 40.3
07:55 1020 30.12 850 25.1 17.1 62.8 41 4 39.2
08:00 1020 30.12 849 25.07 17.9 64.2 43 5.3 41.5
08:05 1020 30.12 850 25.1 18.1 64.6 41 4.6 40.3
08:10 1020 30.12 850 25.1 17.8 64 46 6 42.9
08:15 1020 30.12 850 25.1 17.4 63.3 47 6.2 43.1
08:20 1020 30.12 850 25.1 17.4 63.4 46 5.9 42.6
08:25 1020 30.12 850 25.1 17.6 63.7 44 5.3 41.5
08:30 1020 30.12 850 25.1 17.9 64.3 42 5.1 41.1
08:35 1020 30.12 850 25.1 18.7 65.6 41 5.5 41.8
08:40 1020 30.12 850 25.1 19.3 66.8 41 5.7 42.3
08:45 1020 30.12 850 25.1 19.7 67.4 40 6 42.8
08:50 1020 30.12 849 25.07 20.3 68.6 36 4.8 40.6
08:55 1020 30.12 849 25.07 21.5 70.7 31 3.9 39.1
09:00 1020 30.12 849 25.07 22.5 72.6 29 3.7 38.7
09:05 1020 30.12 849 25.07 22.2 71.9 32 4.8 40.7
09:10 1020 30.12 849 25.07 22.6 72.6 31 4.9 40.8
09:15 1020 30.12 849 25.07 22.7 72.9 33 5.7 42.2
09:20 1020 30.12 849 25.07 23 73.3 29 4.2 39.5
09:25 1020 30.12 849 25.07 23.1 73.5 30 5 40.9
09:30 1020 30.12 849 25.07 23.2 73.7 30 4.9 40.9
09:35 1020 30.12 849 25.07 23.2 73.7 31 5.1 41.2
09:40 1020 30.12 849 25.07 23.4 74.1 30 5 41
09:45 1020 30.12 849 25.07 24.1 75.4 29 5.3 41.6
09:50 1020 30.12 849 25.07 24.4 76 29 5.2 41.4
09:55 1020 30.12 849 25.07 25.1 77.1 28 5.6 42.2
10:00 1020 30.12 849 25.07 25.2 77.3 28 5.4 41.7
10:05 1020 30.12 849 25.07 25.1 77.1 28 5.5 41.9
10:10 1020 30.12 849 25.07 24.8 76.7 28 5.5 42
10:15 1020 30.12 849 25.07 25.1 77.1 27 5.2 41.4
10:20 1020 30.12 849 25.07 25.7 78.3 26 5.2 41.4
10:25 1020 30.12 849 25.07 26.1 78.9 26 5.3 41.6
10:30 1020 30.12 849 25.07 26.5 79.6 25 5.4 41.7
10:35 1020 30.12 849 25.07 26.4 79.4 27 6 42.8
10:40 1020 30.12 849 25.07 25.8 78.4 28 6.3 43.4
10:45 1020 30.12 849 25.07 25.1 77.1 28 5.6 42.1
10:50 1020 30.12 849 25.07 25.7 78.3 28 5.9 42.6
10:55 1020 30.12 849 25.07 26.1 79 27 5.8 42.4
11:00 1020 30.12 849 25.07 26.2 79.1 26 5.7 42.3
11:05 1020 30.12 849 25.07 26.3 79.3 25 5.1 41.2
11:10 1020 30.12 849 25.07 26.8 80.2 26 6 42.9
11:15 1020 30.12 849 25.07 26.9 80.3 25 5.4 41.7
11:20 1020 30.12 849 25.07 26.6 79.9 25 5.4 41.8
11:25 1020 30.12 849 25.07 26.4 79.6 25 5.2 41.4
11:30 1020 30.12 849 25.07 26.6 79.8 24 4.6 40.3
11:35 1020 30.12 849 25.07 26.9 80.5 24 4.7 40.5
11:40 1020 30.12 849 25.07 27.8 82.1 22 4.5 40.1
11:45 1020 30.12 849 25.07 27.9 82.3 24 5.6 42.1
11:50 1020 30.12 849 25.07 28.2 82.8 23 5.4 41.8
11:55 1020 30.12 849 25.07 28.8 83.8 22 5.3 41.6
12:00 1020 30.12 849 25.07 29.2 84.6 21 4.9 40.9
12:05 1020 30.12 849 25.07 29.6 85.3 22 5.8 42.4
12:10 1020 30.12 849 25.07 29.9 85.8 19 4.2 39.5
12:15 1020 30.12 849 25.07 29.5 85.2 19 4.1 39.4
12:20 1020 30.12 849 25.07 29.6 85.3 20 4.5 40.1
12:25 1020 30.12 849 25.07 30.1 86.2 20 5 41
12:30 1020 30.12 849 25.07 30.4 86.7 19 4.9 40.8
12:35 1020 30.12 849 25.07 30.5 87 18 4.1 39.4
12:40 1020 30.12 849 25.07 30.2 86.3 18 3.8 38.8
12:45 1020 30.12 849 25.07 29.1 84.3 20 4.2 39.5
12:50 1019 30.09 849 25.07 29.1 84.3 21 4.7 40.5
12:55 1019 30.09 849 25.07 30.1 86.2 20 5.3 41.5
13:00 1019 30.09 849 25.07 30 85.9 20 4.7 40.5
13:05 1019 30.09 848 25.04 30.1 86.2 20 5.3 41.5
13:10 1019 30.09 848 25.04 30 86 20 4.7 40.5
13:15 1019 30.09 848 25.04 29.9 85.8 20 4.8 40.7
13:20 1019 30.09 848 25.04 30.8 87.4 18 4.4 39.9
13:25 1019 30.09 848 25.04 31.2 88.2 18 4.4 39.9
13:30 1019 30.09 848 25.04 30.4 86.7 19 4.3 39.8
13:35 1019 30.09 848 25.04 30.5 86.9 18 3.6 38.4
13:40 1019 30.09 848 25.04 30.3 86.6 18 3.6 38.5
13:45 1019 30.09 848 25.04 30.1 86.1 18 3.6 38.6
13:50 1019 30.09 848 25.04 29.9 85.7 18 3.7 38.6
13:55 1019 30.09 848 25.04 30 85.9 18 3.6 38.4
14:00 1019 30.09 848 25.04 29.7 85.5 19 4.3 39.7
14:05 1019 30.09 848 25.04 29.7 85.4 19 3.7 38.6
14:10 1019 30.09 848 25.04 29.4 84.9 19 3.7 38.7
14:15 1019 30.09 848 25.04 28.8 83.9 18 2.7 36.8
14:20 1019 30.09 848 25.04 28.5 83.4 20 3.6 38.4
14:25 1019 30.09 848 25.04 28.4 83 20 3.5 38.3
14:30 1019 30.09 848 25.04 28.3 82.9 21 3.9 39.1
14:35 1019 30.09 848 25.04 28.1 82.6 16 0.5 32.9
14:40 1019 30.09 848 25.04 28.1 82.6 18 1.8 35.3
14:45 1019 30.09 848 25.04 28.1 82.6 22 4.8 40.7
14:50 1019 30.09 848 25.04 27.4 81.3 13 -2.7 27.1
14:55 1019 30.09 848 25.04 28.1 82.6 13 -2.1 28.2
15:00 1019 30.09 848 25.04 28.4 83.1 18 1.9 35.3
15:05 1019 30.09 848 25.04 26.9 80.4 27 6.5 43.7
15:10 1019 30.09 848 25.04 25 77.1 28 5.6 42
15:15 1019 30.09 849 25.07 23.4 74.1 34 7 44.6
15:20 1019 30.09 849 25.07 22.5 72.5 37 7.3 45.2
15:25 1019 30.09 849 25.07 22.5 72.6 36 7 44.5
15:30 1019 30.09 848 25.04 22.2 72 43 9.3 48.7
15:35 1019 30.09 848 25.04 21 69.7 46 8.9 48.1
15:40 1019 30.09 849 25.07 21.6 70.8 44 9 48.3
15:45 1020 30.12 849 25.07 22 71.6 38 7.3 45.1
15:50 1020 30.12 849 25.07 22.1 71.8 36 6.3 43.4
15:55 1020 30.12 849 25.07 22.8 73.1 30 4.8 40.6
16:00 1020 30.12 849 25.07 23.6 74.4 31 5.6 42.1
16:05 1020 30.12 849 25.07 23.7 74.7 30 5.4 41.7
16:10 1020 30.12 849 25.07 23.5 74.3 31 5.4 41.8
16:15 1020 30.12 849 25.07 23.7 74.7 29 4.7 40.5
16:20 1019 30.09 849 25.07 24 75.2 30 5.5 41.8
16:25 1020 30.12 849 25.07 23.9 75 31 5.9 42.5
16:30 1020 30.12 849 25.07 23.9 75 30 5.4 41.6
16:35 1020 30.12 849 25.07 24.2 75.5 28 4.9 40.8
16:40 1019 30.09 849 25.07 24.5 76.2 29 5.6 42
16:45 1019 30.09 849 25.07 24.7 76.5 28 5.1 41.2
16:50 1019 30.09 848 25.04 24.8 76.6 27 4.7 40.5
16:55 1019 30.09 848 25.04 25.2 77.3 26 4.7 40.5
17:00 1019 30.09 848 25.04 25.6 78 25 4.4 39.9
17:05 1019 30.09 848 25.04 25.4 77.8 26 4.5 40.2
17:10 1019 30.09 848 25.04 25.3 77.6 24 3.7 38.7
17:15 1019 30.09 848 25.04 25.3 77.6 24 3.6 38.5
17:20 1019 30.09 848 25.04 25.4 77.8 23 3.3 37.9
17:25 1019 30.09 848 25.04 25.6 78 23 3.2 37.8
17:30 1019 30.09 848 25.04 25.6 78.1 24 3.8 38.9
17:35 1019 30.09 849 25.07 25.4 77.7 25 4.2 39.6
17:40 1021 30.15 850 25.1 25.3 77.5 25 4.3 39.7
17:45 1022 30.18 851 25.13 24.2 75.6 29 5.1 41.2
17:50 1022 30.18 851 25.13 23.2 73.7 32 5.8 42.4
17:55 1022 30.18 851 25.13 22.4 72.3 32 5.3 41.5
18:00 1022 30.18 851 25.13 22.2 71.9 33 5.2 41.4
18:05 1022 30.18 851 25.13 22.1 71.8 33 5.4 41.7
18:10 1022 30.18 851 25.13 22.1 71.7 33 5.4 41.7
18:15 1022 30.18 852 25.16 21.8 71.3 35 5.7 42.2
18:20 1022 30.18 851 25.13 21.7 71.1 35 5.7 42.2
18:25 1022 30.18 851 25.13 21.5 70.7 37 6.4 43.6
18:30 1021 30.15 851 25.13 21 69.8 39 6.5 43.7
18:35 1021 30.15 850 25.1 20.7 69.2 41 7.2 45
18:40 1021 30.15 850 25.1 20.6 69.1 39 6.2 43.2
18:45 1021 30.15 850 25.1 20.9 69.6 38 6.3 43.3
18:50 1021 30.15 850 25.1 21 69.8 36 5.6 42
18:55 1020 30.12 850 25.1 21.2 70.1 37 6.1 42.9
19:00 1020 30.12 850 25.1 21.3 70.3 33 4.5 40.1
19:05 1020 30.12 850 25.1 21.5 70.6 36 5.8 42.4
19:10 1021 30.15 850 25.1 21.3 70.3 38 6.7 44.1
19:15 1020 30.12 850 25.1 21.1 69.9 37 6.1 43
19:20 1020 30.12 849 25.07 20.7 69.3 38 6.2 43.2
19:25 1019 30.09 848 25.04 20.5 68.9 39 6.4 43.5
19:30 1019 30.09 848 25.04 20.6 69.2 39 6.3 43.4
19:35 1019 30.09 848 25.04 20.7 69.2 34 4.5 40.2
19:40 1019 30.09 848 25.04 21.6 70.8 31 4 39.2
19:45 1019 30.09 848 25.04 22.2 71.9 30 4.1 39.3
19:50 1019 30.09 848 25.04 22.2 71.9 31 4.4 39.8
19:55 1019 30.09 849 25.07 22.1 71.8 31 4.3 39.7
20:00 1020 30.12 849 25.07 21.9 71.4 33 5.2 41.3
20:05 1020 30.12 849 25.07 21.4 70.6 34 5 41
20:10 1020 30.12 849 25.07 21.3 70.4 34 4.8 40.6
20:15 1020 30.12 849 25.07 21.3 70.4 34 4.9 40.8
20:20 1020 30.12 849 25.07 21.2 70.2 34 4.8 40.6
20:25 1020 30.12 849 25.07 21.2 70.1 34 4.9 40.8
20:30 1020 30.12 849 25.07 21.1 70 34 4.9 40.8
20:35 1020 30.12 849 25.07 21 69.7 35 5.1 41.2
20:40 1020 30.12 849 25.07 20.8 69.4 35 4.9 40.8
20:45 1020 30.12 849 25.07 20.7 69.3 35 4.9 40.8
20:50 1020 30.12 849 25.07 20.8 69.5 34 4.6 40.3
20:55 1020 30.12 849 25.07 20.9 69.7 34 4.8 40.6
21:00 1020 30.12 849 25.07 20.7 69.2 35 4.8 40.7
21:05 1020 30.12 849 25.07 20.5 68.8 35 4.7 40.4
21:10 1020 30.12 849 25.07 20.4 68.7 35 4.7 40.5
21:15 1020 30.12 849 25.07 20.5 68.9 34 4.5 40
21:20 1020 30.12 849 25.07 20.6 69 34 4.5 40.1
21:25 1020 30.12 849 25.07 20.8 69.4 33 4.1 39.4
21:30 1020 30.12 849 25.07 21 69.8 33 4.2 39.5
21:35 1020 30.12 849 25.07 21 69.8 33 4.3 39.7
21:40 1020 30.12 849 25.07 20.9 69.5 33 4.1 39.3
21:45 1020 30.12 849 25.07 21 69.8 32 3.9 39
21:50 1020 30.12 849 25.07 21.5 70.7 30 3.5 38.3
21:55 1020 30.12 849 25.07 21.8 71.3 30 3.6 38.5
22:00 1020 30.12 849 25.07 21.7 71.1 30 3.8 38.8
22:05 1020 30.12 849 25.07 21.5 70.6 31 3.7 38.6
22:10 1020 30.12 849 25.07 21.4 70.4 31 3.9 39
22:15 1020 30.12 849 25.07 21.3 70.4 32 4.3 39.8
22:20 1020 30.12 849 25.07 20.7 69.3 34 4.7 40.4
22:25 1020 30.12 849 25.07 20.3 68.5 36 4.8 40.6
22:30 1020 30.12 849 25.07 20.2 68.3 35 4.5 40.1
22:35 1020 30.12 849 25.07 20.3 68.6 35 4.4 39.9
22:40 1020 30.12 849 25.07 20 68 37 5.1 41.3
22:45 1020 30.12 849 25.07 19.8 67.6 37 4.9 40.8
22:50 1020 30.12 849 25.07 19.7 67.4 38 5.1 41.2
22:55 1020 30.12 849 25.07 19.4 66.9 39 5.2 41.3
23:00 1020 30.12 849 25.07 19.1 66.4 40 5.2 41.4
23:05 1020 30.12 849 25.07 19 66.3 39 5 41.1
23:10 1020 30.12 849 25.07 19.1 66.3 39 5 40.9
23:15 1020 30.12 849 25.07 19.1 66.4 39 4.9 40.8
23:20 1020 30.12 849 25.07 18.9 66.1 39 4.8 40.7
23:25 1020 30.12 849 25.07 19 66.2 39 4.7 40.5
23:30 1020 30.12 849 25.07 19.2 66.6 37 4.4 40
23:35 1020 30.12 849 25.07 19.5 67.2 36 4.4 39.9
23:40 1019 30.09 849 25.07 19.7 67.4 36 4.3 39.8
23:45 1019 30.09 849 25.07 19.7 67.4 36 4.3 39.7
23:50 1020 30.12 849 25.07 19.8 67.6 35 4.2 39.6
23:55 1020 30.12 849 25.07 19.6 67.3 37 4.5 40.1
24:00 1020 30.12 849 25.07 19.6 67.2 37 4.6 40.3